createdAt,value
2023-01-13T00:01:29.465Z,14.70
2023-01-13T00:03:58.138Z,14.30
2023-01-13T00:06:27.084Z,13.90
2023-01-13T00:08:57.758Z,14.20
2023-01-13T00:11:26.404Z,14.40
2023-01-13T00:13:54.815Z,14.20
2023-01-13T00:16:23.197Z,14.00
2023-01-13T00:18:52.460Z,13.60
2023-01-13T00:21:23.020Z,14.00
2023-01-13T00:23:52.453Z,14.50
2023-01-13T00:26:23.983Z,14.80
2023-01-13T00:28:52.749Z,14.90
2023-01-13T00:31:22.242Z,13.80
2023-01-13T00:33:51.134Z,14.90
2023-01-13T00:36:23.373Z,15.20
2023-01-13T00:38:51.780Z,15.00
2023-01-13T00:41:23.216Z,14.50
2023-01-13T00:43:50.697Z,14.50
2023-01-13T00:46:20.517Z,15.00
2023-01-13T00:48:49.724Z,14.60
2023-01-13T00:51:19.600Z,13.90
2023-01-13T00:53:49.940Z,14.30
2023-01-13T00:56:30.545Z,14.40
2023-01-13T00:59:08.255Z,13.90
2023-01-13T01:01:36.735Z,13.60
2023-01-13T01:04:05.194Z,13.70
2023-01-13T01:06:33.717Z,13.40
2023-01-13T01:09:02.111Z,14.00
2023-01-13T01:11:32.456Z,13.50
2023-01-13T01:14:03.469Z,14.10
2023-01-13T01:16:34.455Z,14.30
2023-01-13T01:19:03.751Z,14.40
2023-01-13T01:21:32.677Z,13.80
2023-01-13T01:24:02.746Z,14.80
2023-01-13T01:26:32.128Z,15.50
2023-01-13T01:29:02.215Z,15.80
2023-01-13T01:31:33.409Z,14.60
2023-01-13T01:34:02.404Z,13.30
2023-01-13T01:36:31.083Z,13.20
2023-01-13T01:39:00.314Z,13.20
2023-01-13T01:41:31.637Z,13.80
2023-01-13T01:44:03.158Z,14.70
2023-01-13T01:46:35.731Z,14.70
2023-01-13T01:49:13.414Z,14.20
2023-01-13T01:51:47.054Z,15.00
2023-01-13T01:54:20.312Z,15.00
2023-01-13T01:56:49.539Z,14.50
2023-01-13T01:59:18.379Z,14.70
2023-01-13T02:01:48.236Z,15.10
2023-01-13T02:04:20.537Z,15.10
2023-01-13T02:06:50.183Z,14.50
2023-01-13T02:09:18.996Z,13.80
2023-01-13T02:12:04.910Z,13.30
2023-01-13T02:14:34.803Z,13.00
2023-01-13T02:17:24.931Z,13.60
2023-01-13T02:20:36.766Z,13.80
2023-01-13T02:23:51.350Z,13.20
2023-01-13T02:26:46.181Z,12.10
2023-01-13T02:29:46.376Z,12.00
2023-01-13T02:32:21.969Z,12.90
2023-01-13T02:34:56.409Z,13.10
2023-01-13T02:37:29.860Z,13.30
2023-01-13T02:40:02.581Z,14.20
2023-01-13T02:42:52.216Z,14.60
2023-01-13T02:45:27.922Z,14.80
2023-01-13T02:47:58.763Z,14.20
2023-01-13T02:50:30.593Z,14.70
2023-01-13T02:53:03.595Z,14.60
2023-01-13T02:55:35.345Z,14.40
2023-01-13T02:58:07.436Z,14.50
2023-01-13T03:00:38.063Z,14.80
2023-01-13T03:03:06.568Z,15.00
2023-01-13T03:05:35.158Z,15.00
2023-01-13T03:08:18.613Z,13.80
2023-01-13T03:11:03.938Z,13.70
2023-01-13T03:13:55.424Z,13.80
2023-01-13T03:16:32.804Z,13.70
2023-01-13T03:19:12.454Z,13.70
2023-01-13T03:21:49.193Z,14.70
2023-01-13T03:24:21.303Z,14.80
2023-01-13T03:26:52.468Z,14.40
2023-01-13T03:29:23.339Z,13.90
2023-01-13T03:31:59.136Z,13.40
2023-01-13T03:34:31.820Z,13.10
2023-01-13T03:37:03.474Z,14.00
2023-01-13T03:39:35.783Z,13.50
2023-01-13T03:42:10.268Z,13.00
2023-01-13T03:44:42.360Z,12.40
2023-01-13T03:47:18.133Z,12.00
2023-01-13T03:49:53.264Z,11.80
2023-01-13T03:52:26.586Z,11.90
2023-01-13T03:55:00.006Z,11.90
2023-01-13T03:57:32.432Z,11.60
2023-01-13T04:00:04.020Z,11.40
2023-01-13T04:02:44.084Z,11.70
2023-01-13T04:05:12.850Z,11.60
2023-01-13T04:07:50.958Z,12.00
2023-01-13T04:10:22.499Z,12.50
2023-01-13T04:13:04.216Z,13.00
2023-01-13T04:15:38.458Z,13.00
2023-01-13T04:18:17.785Z,12.70
2023-01-13T04:20:48.328Z,12.10
2023-01-13T04:23:17.514Z,12.20
2023-01-13T04:25:46.648Z,12.20
2023-01-13T04:28:15.744Z,12.60
2023-01-13T04:30:45.188Z,12.40
2023-01-13T04:33:16.895Z,12.10
2023-01-13T04:35:46.114Z,12.10
2023-01-13T04:38:16.253Z,11.60
2023-01-13T04:40:45.085Z,12.40
2023-01-13T04:43:13.514Z,11.60
2023-01-13T04:45:41.907Z,12.50
2023-01-13T04:48:10.532Z,12.30
2023-01-13T04:50:40.422Z,11.80
2023-01-13T04:53:08.849Z,11.80
2023-01-13T04:55:37.495Z,12.00
2023-01-13T04:58:06.548Z,12.70
2023-01-13T05:00:35.095Z,12.20
2023-01-13T05:03:04.038Z,12.20
2023-01-13T05:05:32.619Z,11.80
2023-01-13T05:08:02.231Z,12.00
2023-01-13T05:10:31.255Z,11.90
2023-01-13T05:13:17.342Z,11.70
2023-01-13T05:16:17.622Z,12.10
2023-01-13T05:18:46.197Z,12.10
2023-01-13T05:21:28.376Z,11.70
2023-01-13T05:24:15.506Z,11.80
2023-01-13T05:26:43.993Z,12.80
2023-01-13T05:29:12.438Z,12.80
2023-01-13T05:31:40.828Z,12.70
2023-01-13T05:34:09.123Z,13.10
2023-01-13T05:36:37.532Z,12.40
2023-01-13T05:39:07.066Z,12.40
2023-01-13T05:41:52.980Z,12.70
2023-01-13T05:44:21.385Z,13.10
2023-01-13T05:46:49.815Z,13.40
2023-01-13T05:49:18.261Z,12.30
2023-01-13T05:51:46.904Z,12.30
2023-01-13T05:54:16.803Z,12.40
2023-01-13T05:56:45.246Z,12.00
2023-01-13T05:59:13.700Z,12.60
2023-01-13T06:01:42.409Z,12.90
2023-01-13T06:04:10.882Z,12.50
2023-01-13T06:06:39.275Z,12.90
2023-01-13T06:09:07.717Z,12.80
2023-01-13T06:11:37.506Z,13.50
2023-01-13T06:14:05.851Z,13.00
2023-01-13T06:16:34.398Z,12.60
2023-01-13T06:19:02.713Z,12.80
2023-01-13T06:21:33.103Z,12.50
2023-01-13T06:24:01.997Z,13.00
2023-01-13T06:26:32.860Z,13.10
2023-01-13T06:29:02.524Z,12.90
2023-01-13T06:31:32.101Z,12.80
2023-01-13T06:34:03.372Z,13.10
2023-01-13T06:36:37.475Z,13.30
2023-01-13T06:39:06.284Z,13.60
2023-01-13T06:41:52.726Z,13.70
2023-01-13T06:44:24.678Z,13.70
2023-01-13T06:46:53.162Z,13.40
2023-01-13T06:49:21.928Z,13.50
2023-01-13T06:51:50.377Z,13.00
2023-01-13T06:54:18.627Z,12.80
2023-01-13T06:56:47.039Z,13.00
2023-01-13T06:59:15.574Z,13.30
2023-01-13T07:01:45.612Z,12.90
2023-01-13T07:04:14.060Z,12.00
2023-01-13T07:06:42.480Z,12.90
2023-01-13T07:09:10.941Z,12.50
2023-01-13T07:11:39.526Z,12.10
2023-01-13T07:14:25.348Z,12.50
2023-01-13T07:16:55.368Z,12.30
2023-01-13T07:19:24.366Z,12.70
2023-01-13T07:21:53.218Z,11.80
2023-01-13T07:24:22.489Z,12.20
2023-01-13T07:26:52.766Z,12.20
2023-01-13T07:29:21.185Z,12.40
2023-01-13T07:31:50.193Z,12.80
2023-01-13T07:34:20.170Z,13.00
2023-01-13T07:36:48.681Z,12.10
2023-01-13T07:39:17.124Z,12.00
2023-01-13T07:42:03.036Z,11.70
2023-01-13T07:44:31.434Z,11.60
2023-01-13T07:47:00.011Z,12.30
2023-01-13T07:49:29.658Z,12.00
2023-01-13T07:51:58.475Z,11.40
2023-01-13T07:54:39.757Z,11.10
2023-01-13T07:57:10.216Z,10.80
2023-01-13T07:59:38.666Z,11.00
2023-01-13T08:02:07.552Z,11.10
2023-01-13T08:04:37.215Z,11.10
2023-01-13T08:07:06.085Z,11.10
2023-01-13T08:09:34.593Z,10.90
2023-01-13T08:12:20.347Z,11.20
2023-01-13T08:14:50.264Z,10.60
2023-01-13T08:17:20.476Z,10.80
2023-01-13T08:19:50.371Z,10.70
2023-01-13T08:22:18.784Z,10.80
2023-01-13T08:24:47.230Z,11.40
2023-01-13T08:27:15.592Z,11.00
2023-01-13T08:29:43.868Z,11.00
2023-01-13T08:32:12.346Z,12.00
2023-01-13T08:34:40.856Z,12.40
2023-01-13T08:37:10.646Z,11.70
2023-01-13T08:39:39.077Z,12.00
2023-01-13T08:42:07.345Z,11.60
2023-01-13T08:44:35.874Z,12.00
2023-01-13T08:47:06.857Z,12.40
2023-01-13T08:49:35.461Z,11.90
2023-01-13T08:52:04.755Z,11.10
2023-01-13T08:54:34.364Z,12.10
2023-01-13T08:57:03.565Z,10.80
2023-01-13T08:59:32.076Z,11.80
2023-01-13T09:02:00.685Z,11.90
2023-01-13T09:04:30.239Z,11.50
2023-01-13T09:06:58.602Z,11.30
2023-01-13T09:09:27.792Z,11.00
2023-01-13T09:12:14.991Z,11.30
2023-01-13T09:14:45.969Z,11.00
2023-01-13T09:17:14.660Z,11.30
2023-01-13T09:19:43.392Z,10.90
2023-01-13T09:22:14.970Z,11.10
2023-01-13T09:24:43.464Z,11.30
2023-01-13T09:27:14.160Z,10.80
2023-01-13T09:29:42.725Z,11.10
2023-01-13T09:32:13.565Z,11.50
2023-01-13T09:34:59.208Z,11.10
2023-01-13T09:37:28.554Z,10.90
2023-01-13T09:39:57.084Z,11.40
2023-01-13T09:42:57.124Z,11.60
2023-01-13T09:45:28.727Z,11.10
2023-01-13T09:48:03.787Z,11.20
2023-01-13T09:50:47.023Z,11.50
2023-01-13T09:53:22.673Z,11.40
2023-01-13T09:55:51.349Z,10.60
2023-01-13T09:58:21.253Z,10.70
2023-01-13T10:01:00.871Z,11.20
2023-01-13T10:03:31.510Z,11.20
2023-01-13T10:06:06.867Z,11.20
2023-01-13T10:08:38.733Z,11.20
2023-01-13T10:11:27.836Z,11.50
2023-01-13T10:14:01.000Z,10.90
2023-01-13T10:16:42.059Z,11.10
2023-01-13T10:19:19.112Z,11.00
2023-01-13T10:22:12.103Z,11.10
2023-01-13T10:24:55.601Z,11.30
2023-01-13T10:27:30.607Z,11.60
2023-01-13T10:30:00.566Z,11.10
2023-01-13T10:32:29.317Z,11.10
2023-01-13T10:34:58.199Z,11.40
2023-01-13T10:37:28.094Z,11.60
2023-01-13T10:39:57.937Z,11.10
2023-01-13T10:42:26.365Z,11.10
2023-01-13T10:44:56.519Z,11.20
2023-01-13T10:47:28.645Z,11.10
2023-01-13T10:50:20.191Z,11.00
2023-01-13T10:53:01.011Z,11.50
2023-01-13T10:55:32.377Z,10.70
2023-01-13T10:58:13.540Z,11.00
2023-01-13T11:00:42.074Z,10.80
2023-01-13T11:03:20.809Z,11.10
2023-01-13T11:05:54.882Z,11.00
2023-01-13T11:08:25.283Z,11.00
2023-01-13T11:10:55.771Z,11.20
2023-01-13T11:13:31.624Z,11.00
2023-01-13T11:16:06.425Z,10.80
2023-01-13T11:18:51.830Z,11.10
2023-01-13T11:21:25.690Z,11.00
2023-01-13T11:24:03.399Z,10.90
2023-01-13T11:26:44.819Z,11.10
2023-01-13T11:29:18.081Z,11.50
2023-01-13T11:31:50.275Z,11.20
2023-01-13T11:34:29.617Z,10.90
2023-01-13T11:37:01.592Z,11.20
2023-01-13T11:39:43.007Z,11.60
2023-01-13T11:42:22.464Z,11.60
2023-01-13T11:45:01.638Z,11.70
2023-01-13T11:47:30.874Z,11.20
2023-01-13T11:50:01.292Z,11.40
2023-01-13T11:52:43.685Z,11.80
2023-01-13T11:55:24.333Z,11.50
2023-01-13T11:58:05.528Z,11.30
2023-01-13T12:00:51.666Z,10.90
2023-01-13T12:03:32.160Z,11.30
2023-01-13T12:06:21.677Z,11.60
2023-01-13T12:09:11.774Z,11.30
2023-01-13T12:12:07.779Z,10.90
2023-01-13T12:14:46.381Z,10.80
2023-01-13T12:17:27.705Z,11.20
2023-01-13T12:19:56.400Z,10.90
2023-01-13T12:22:30.251Z,11.30
2023-01-13T12:25:05.368Z,11.60
2023-01-13T12:27:41.841Z,11.10
2023-01-13T12:30:24.752Z,11.40
2023-01-13T12:32:56.020Z,11.70
2023-01-13T12:35:39.896Z,11.30
2023-01-13T12:38:17.708Z,11.20
2023-01-13T12:40:54.727Z,11.50
2023-01-13T12:43:41.849Z,11.80
2023-01-13T12:46:35.799Z,11.30
2023-01-13T12:49:08.721Z,11.30
2023-01-13T12:51:40.135Z,10.90
2023-01-13T12:54:34.673Z,11.10
2023-01-13T12:57:15.336Z,11.00
2023-01-13T12:59:49.009Z,11.00
2023-01-13T13:02:34.640Z,11.40
2023-01-13T13:05:35.605Z,11.20
2023-01-13T13:08:11.652Z,11.60
2023-01-13T13:10:47.988Z,11.90
2023-01-13T13:13:39.622Z,11.50
2023-01-13T13:16:56.399Z,11.50
2023-01-13T13:19:47.338Z,12.00
2023-01-13T13:22:43.313Z,12.20
2023-01-13T13:25:28.026Z,12.00
2023-01-13T13:28:17.280Z,11.80
2023-01-13T13:30:54.762Z,11.50
2023-01-13T13:33:39.994Z,12.30
2023-01-13T13:36:20.474Z,11.70
2023-01-13T13:39:20.523Z,11.70
2023-01-13T13:42:09.076Z,11.70
2023-01-13T13:44:58.802Z,11.80
2023-01-13T13:47:27.226Z,12.10
2023-01-13T13:49:56.577Z,12.10
2023-01-13T13:52:33.370Z,11.60
2023-01-13T13:55:14.870Z,12.30
2023-01-13T13:57:47.438Z,12.50
2023-01-13T14:00:25.556Z,12.30
2023-01-13T14:02:56.080Z,12.70
2023-01-13T14:05:29.329Z,12.50
2023-01-13T14:08:02.687Z,12.20
2023-01-13T14:10:33.775Z,12.30
2023-01-13T14:13:04.117Z,12.90
2023-01-13T14:15:36.562Z,12.80
2023-01-13T14:18:07.919Z,12.50
2023-01-13T14:20:37.019Z,12.50
2023-01-13T14:23:06.013Z,12.60
2023-01-13T14:25:39.513Z,12.70
2023-01-13T14:28:23.487Z,13.10
2023-01-13T14:30:54.294Z,12.60
2023-01-13T14:33:27.617Z,12.50
2023-01-13T14:36:06.991Z,13.00
2023-01-13T14:38:35.547Z,12.30
2023-01-13T14:41:12.923Z,12.10
2023-01-13T14:43:45.467Z,12.20
2023-01-13T14:46:17.618Z,12.70
2023-01-13T14:48:48.199Z,12.60
2023-01-13T14:51:24.234Z,12.40
2023-01-13T14:53:54.015Z,12.50
2023-01-13T14:56:47.203Z,12.70
2023-01-13T14:59:35.320Z,12.40
2023-01-13T15:02:42.743Z,12.30
2023-01-13T15:05:31.280Z,12.70
2023-01-13T15:08:02.952Z,12.80
2023-01-13T15:10:34.022Z,12.80
2023-01-13T15:13:04.040Z,12.30
2023-01-13T15:15:34.949Z,12.70
2023-01-13T15:18:12.046Z,13.20
2023-01-13T15:20:40.738Z,12.80
2023-01-13T15:23:09.873Z,13.30
2023-01-13T15:25:39.770Z,13.20
2023-01-13T15:28:09.321Z,13.00
2023-01-13T15:30:37.723Z,12.80
2023-01-13T15:33:10.096Z,13.10
2023-01-13T15:35:40.408Z,12.70
2023-01-13T15:38:12.514Z,12.50
2023-01-13T15:40:40.983Z,12.70
2023-01-13T15:43:31.761Z,12.90
2023-01-13T15:46:17.576Z,12.40
2023-01-13T15:48:53.097Z,12.20
2023-01-13T15:51:23.421Z,12.60
2023-01-13T15:53:51.899Z,12.60
2023-01-13T15:56:24.554Z,12.10
2023-01-13T15:58:53.498Z,11.80
2023-01-13T16:01:23.312Z,12.00
2023-01-13T16:03:53.118Z,12.30
2023-01-13T16:06:32.593Z,12.50
2023-01-13T16:09:02.840Z,12.20
2023-01-13T16:11:32.097Z,12.50
2023-01-13T16:14:00.527Z,12.50
2023-01-13T16:16:29.664Z,12.50
2023-01-13T16:18:59.272Z,12.20
2023-01-13T16:21:27.707Z,12.20
2023-01-13T16:23:56.095Z,13.20
2023-01-13T16:26:26.292Z,14.80
2023-01-13T16:28:55.688Z,14.80
2023-01-13T16:31:26.883Z,15.30
2023-01-13T16:33:55.477Z,13.90
2023-01-13T16:36:25.319Z,13.40
2023-01-13T16:38:54.316Z,12.80
2023-01-13T16:41:24.856Z,12.30
2023-01-13T16:43:53.449Z,12.20
2023-01-13T16:46:25.395Z,12.20
2023-01-13T16:48:54.918Z,12.30
2023-01-13T16:51:25.659Z,12.20
2023-01-13T16:53:54.086Z,12.10
2023-01-13T16:56:26.626Z,11.70
2023-01-13T16:58:59.262Z,11.60
2023-01-13T17:01:29.345Z,11.70
2023-01-13T17:03:58.182Z,11.80
2023-01-13T17:06:33.211Z,11.80
2023-01-13T17:09:06.290Z,11.40
2023-01-13T17:11:35.248Z,11.40
2023-01-13T17:14:12.663Z,11.60
2023-01-13T17:16:47.340Z,11.60
2023-01-13T17:19:15.833Z,12.10
2023-01-13T17:21:47.104Z,11.90
2023-01-13T17:24:15.503Z,11.60
2023-01-13T17:26:47.482Z,11.60
2023-01-13T17:29:17.669Z,11.50
2023-01-13T17:31:45.944Z,11.50
2023-01-13T17:34:14.756Z,11.60
2023-01-13T17:36:44.643Z,11.50
2023-01-13T17:39:17.275Z,11.50
2023-01-13T17:41:45.763Z,11.40
2023-01-13T17:44:15.323Z,11.20
2023-01-13T17:46:44.353Z,11.40
2023-01-13T17:49:13.203Z,11.30
2023-01-13T17:51:42.140Z,11.30
2023-01-13T17:54:12.573Z,11.50
2023-01-13T17:56:41.559Z,11.30
2023-01-13T17:59:10.779Z,11.40
2023-01-13T18:01:39.843Z,11.20
2023-01-13T18:04:10.493Z,11.40
2023-01-13T18:06:38.930Z,11.30
2023-01-13T18:09:07.343Z,11.30
2023-01-13T18:11:37.104Z,11.50
2023-01-13T18:14:06.475Z,11.70
2023-01-13T18:16:35.137Z,11.80
2023-01-13T18:19:21.367Z,11.70
2023-01-13T18:22:07.349Z,11.70
2023-01-13T18:24:53.479Z,12.00
2023-01-13T18:27:27.912Z,11.70
2023-01-13T18:29:57.302Z,11.50
2023-01-13T18:32:31.421Z,11.70
2023-01-13T18:35:06.067Z,11.80
2023-01-13T18:37:38.482Z,12.20
2023-01-13T18:40:09.376Z,11.40
2023-01-13T18:42:54.701Z,11.40
2023-01-13T18:45:25.545Z,11.30
2023-01-13T18:47:55.279Z,11.00
2023-01-13T18:50:23.891Z,11.20
2023-01-13T18:52:52.511Z,11.10
2023-01-13T18:55:21.185Z,11.20
2023-01-13T18:57:51.384Z,11.10
2023-01-13T19:00:21.548Z,11.00
2023-01-13T19:05:34.563Z,11.30
2023-01-13T19:08:02.865Z,11.10
2023-01-13T19:10:32.710Z,11.10
2023-01-13T19:13:02.912Z,11.10
2023-01-13T19:15:31.640Z,10.90
2023-01-13T19:18:00.232Z,11.00
2023-01-13T19:20:28.697Z,10.90
2023-01-13T19:22:57.125Z,11.00
2023-01-13T19:25:25.542Z,10.90
2023-01-13T19:27:53.898Z,11.00
2023-01-13T19:30:23.598Z,10.90
2023-01-13T19:32:52.021Z,11.20
2023-01-13T19:35:20.450Z,11.00
2023-01-13T19:37:49.489Z,10.90
2023-01-13T19:40:18.156Z,10.90
2023-01-13T19:43:09.721Z,10.80
2023-01-13T19:45:39.219Z,10.80
2023-01-13T19:48:08.556Z,10.80
2023-01-13T19:50:41.371Z,10.80
2023-01-13T19:53:16.753Z,10.80
2023-01-13T19:55:47.733Z,10.90
2023-01-13T19:58:16.332Z,11.00
2023-01-13T20:00:47.451Z,11.10
2023-01-13T20:03:16.021Z,10.90
2023-01-13T20:05:44.560Z,11.00
2023-01-13T20:08:13.119Z,10.80
2023-01-13T20:10:42.863Z,10.70
2023-01-13T20:13:11.306Z,10.70
2023-01-13T20:15:39.928Z,10.70
2023-01-13T20:18:10.484Z,10.70
2023-01-13T20:20:38.893Z,10.70
2023-01-13T20:23:07.319Z,10.60
2023-01-13T20:25:35.651Z,10.60
2023-01-13T20:28:04.351Z,10.60
2023-01-13T20:30:32.950Z,10.70
2023-01-13T20:33:01.341Z,10.50
2023-01-13T20:35:30.890Z,10.50
2023-01-13T20:37:59.302Z,10.40
2023-01-13T20:40:27.527Z,10.50
2023-01-13T20:42:54.951Z,10.50
2023-01-13T20:45:23.425Z,10.60
2023-01-13T20:47:51.747Z,10.50
2023-01-13T20:50:20.331Z,10.50
2023-01-13T20:52:49.928Z,10.30
2023-01-13T20:55:18.359Z,10.30
2023-01-13T20:57:48.742Z,10.30
2023-01-13T21:00:17.887Z,10.20
2023-01-13T21:02:46.325Z,10.40
2023-01-13T21:05:15.018Z,10.40
2023-01-13T21:07:43.286Z,10.30
2023-01-13T21:10:13.349Z,10.10
2023-01-13T21:12:59.522Z,10.20
2023-01-13T21:15:28.112Z,10.20
2023-01-13T21:18:13.674Z,10.30
2023-01-13T21:20:42.167Z,10.30
2023-01-13T21:23:11.879Z,10.20
2023-01-13T21:25:41.676Z,10.20
2023-01-13T21:28:11.312Z,10.20
2023-01-13T21:30:39.853Z,10.20
2023-01-13T21:33:08.383Z,10.20
2023-01-13T21:35:39.427Z,10.20
2023-01-13T21:38:08.041Z,10.20
2023-01-13T21:40:36.529Z,10.30
2023-01-13T21:43:23.786Z,10.00
2023-01-13T21:46:09.849Z,10.20
2023-01-13T21:48:38.286Z,10.20
2023-01-13T21:51:07.111Z,10.10
2023-01-13T21:53:35.477Z,10.10
2023-01-13T21:56:03.747Z,10.10
2023-01-13T21:58:33.378Z,10.30
2023-01-13T22:01:03.816Z,10.20
2023-01-13T22:03:53.702Z,10.10
2023-01-13T22:06:22.155Z,10.10
2023-01-13T22:08:50.562Z,10.00
2023-01-13T22:11:18.967Z,10.10
2023-01-13T22:14:07.212Z,10.10
2023-01-13T22:16:39.067Z,10.00
2023-01-13T22:19:08.615Z,10.00
2023-01-13T22:21:37.537Z,10.40
2023-01-13T22:24:06.270Z,10.10
2023-01-13T22:26:34.750Z,10.20
2023-01-13T22:29:04.393Z,9.90
2023-01-13T22:31:33.014Z,10.00
2023-01-13T22:34:01.354Z,10.40
2023-01-13T22:36:29.735Z,10.40
2023-01-13T22:39:00.269Z,10.30
2023-01-13T22:41:28.792Z,10.10
2023-01-13T22:43:57.343Z,9.90
2023-01-13T22:46:27.013Z,9.80
2023-01-13T22:48:56.001Z,9.70
2023-01-13T22:51:26.095Z,9.70
2023-01-13T22:53:55.201Z,9.50
2023-01-13T22:56:24.913Z,9.40
2023-01-13T22:58:55.318Z,9.30
2023-01-13T23:01:24.992Z,9.30
2023-01-13T23:03:55.201Z,9.30
2023-01-13T23:06:24.949Z,9.40
2023-01-13T23:08:53.641Z,9.30
2023-01-13T23:11:24.774Z,9.40
2023-01-13T23:13:58.989Z,9.30
2023-01-13T23:16:28.051Z,9.20
2023-01-13T23:18:58.264Z,9.20
2023-01-13T23:21:28.659Z,8.90
2023-01-13T23:23:58.786Z,8.70
2023-01-13T23:26:28.142Z,8.60
2023-01-13T23:29:00.470Z,8.40
2023-01-13T23:31:29.016Z,8.40
2023-01-13T23:33:58.882Z,8.50
2023-01-13T23:36:28.855Z,8.50
2023-01-13T23:38:58.236Z,8.50
2023-01-13T23:41:28.288Z,8.60
2023-01-13T23:43:58.041Z,9.00
2023-01-13T23:46:26.972Z,8.80
2023-01-13T23:48:56.408Z,8.80
2023-01-13T23:51:27.579Z,8.80
2023-01-13T23:53:56.098Z,8.60
2023-01-13T23:56:26.719Z,8.50
2023-01-13T23:58:55.417Z,8.50
